PEW weather

Peshawar International Airport
Peshawar, North-West Frontier, Pakistan

Public forecast

Using degrees Celsius for public forecast. Weather courtesy of forecast.io.

METAR (pilot weather report)

Retrieved 2019/09/17 01:00 UTC (31 minutes ago):

OPPS 170100Z 23006KT 5000 HZ FEW100 26/19 Q1006

TAF (pilot weather forecast)

Forecast is more than 12 hours old.

Retrieved 2019/09/16 00:00 UTC (1 day ago):

TAF OPPS 162100Z 1700/1806 05015KT 4000 HZ FEW040 SCT100 FEW030TCU 3000 BR TEMPO 1709/1712 FEW030TCU SCT100